createdAt,value
2018-10-06T00:01:44.106Z,10.70
2018-10-06T00:04:18.723Z,10.70
2018-10-06T00:06:53.250Z,10.60
2018-10-06T00:09:27.807Z,10.70
2018-10-06T00:12:02.333Z,10.70
2018-10-06T00:14:36.850Z,10.50
2018-10-06T00:17:11.458Z,10.20
2018-10-06T00:19:46.130Z,10.20
2018-10-06T00:22:20.728Z,10.20
2018-10-06T00:24:55.679Z,10.20
2018-10-06T00:27:30.255Z,10.10
2018-10-06T00:30:05.053Z,10.30
2018-10-06T00:32:39.731Z,10.30
2018-10-06T00:35:14.186Z,10.40
2018-10-06T00:37:48.828Z,10.40
2018-10-06T00:40:23.354Z,10.50
2018-10-06T00:42:57.904Z,10.50
2018-10-06T00:45:32.517Z,10.40
2018-10-06T00:48:07.050Z,10.20
2018-10-06T00:50:41.585Z,10.20
2018-10-06T00:53:16.219Z,10.30
2018-10-06T00:55:50.797Z,10.40
2018-10-06T00:58:25.335Z,10.30
2018-10-06T01:01:00.140Z,10.20
2018-10-06T01:03:34.666Z,10.20
2018-10-06T01:06:09.300Z,10.20
2018-10-06T01:08:43.710Z,10.20
2018-10-06T01:11:18.256Z,10.10
2018-10-06T01:13:52.729Z,10.10
2018-10-06T01:16:27.361Z,10.20
2018-10-06T01:21:36.259Z,10.20
2018-10-06T01:24:10.801Z,10.20
2018-10-06T01:26:45.221Z,10.20
2018-10-06T01:29:19.695Z,10.30
2018-10-06T01:31:54.268Z,10.30
2018-10-06T01:34:28.649Z,10.20
2018-10-06T01:37:03.370Z,10.20
2018-10-06T01:39:37.986Z,10.20
2018-10-06T01:42:12.778Z,9.80
2018-10-06T01:44:47.391Z,9.40
2018-10-06T01:47:22.061Z,9.40
2018-10-06T01:49:56.581Z,9.40
2018-10-06T01:52:31.171Z,9.50
2018-10-06T01:55:05.703Z,9.40
2018-10-06T01:57:40.327Z,9.40
2018-10-06T02:00:14.842Z,9.40
2018-10-06T02:02:49.236Z,9.30
2018-10-06T02:05:23.920Z,9.30
2018-10-06T02:07:58.494Z,9.40
2018-10-06T02:10:33.167Z,9.30
2018-10-06T02:13:07.714Z,9.40
2018-10-06T02:15:42.378Z,9.50
2018-10-06T02:18:17.010Z,9.50
2018-10-06T02:20:51.414Z,9.40
2018-10-06T02:23:25.990Z,9.40
2018-10-06T02:26:00.572Z,9.50
2018-10-06T02:28:35.186Z,9.50
2018-10-06T02:31:09.792Z,9.40
2018-10-06T02:33:44.228Z,9.50
2018-10-06T02:36:18.679Z,9.40
2018-10-06T02:38:53.197Z,9.20
2018-10-06T02:41:27.624Z,9.20
2018-10-06T02:44:02.207Z,9.30
2018-10-06T02:46:36.800Z,9.30
2018-10-06T02:49:11.394Z,9.30
2018-10-06T02:51:46.002Z,9.40
2018-10-06T02:54:20.585Z,9.30
2018-10-06T02:56:54.982Z,9.40
2018-10-06T02:59:29.365Z,9.50
2018-10-06T03:02:03.848Z,9.50
2018-10-06T03:04:38.375Z,9.60
2018-10-06T03:07:13.043Z,9.70
2018-10-06T03:09:47.710Z,9.70
2018-10-06T03:12:22.189Z,9.70
2018-10-06T03:14:56.621Z,9.70
2018-10-06T03:17:31.086Z,9.80
2018-10-06T03:20:05.547Z,10.00
2018-10-06T03:22:40.101Z,10.00
2018-10-06T03:25:14.516Z,10.00
2018-10-06T03:27:49.104Z,10.10
2018-10-06T03:30:23.524Z,10.10
2018-10-06T03:32:58.199Z,10.00
2018-10-06T03:35:32.720Z,10.00
2018-10-06T03:38:07.278Z,9.90
2018-10-06T03:40:41.862Z,9.90
2018-10-06T03:43:16.396Z,9.90
2018-10-06T03:45:50.965Z,9.90
2018-10-06T03:48:25.368Z,9.90
2018-10-06T03:50:59.915Z,10.00
2018-10-06T03:53:34.322Z,10.00
2018-10-06T03:56:08.912Z,10.00
2018-10-06T03:58:43.334Z,10.10
2018-10-06T04:01:18.059Z,10.00
2018-10-06T04:03:52.726Z,10.20
2018-10-06T04:06:27.297Z,10.20
2018-10-06T04:09:01.908Z,10.20
2018-10-06T04:11:36.583Z,10.30
2018-10-06T04:14:11.012Z,10.30
2018-10-06T04:16:45.536Z,10.40
2018-10-06T04:19:19.959Z,10.40
2018-10-06T04:21:54.531Z,10.40
2018-10-06T04:24:28.986Z,10.40
2018-10-06T04:27:03.766Z,10.50
2018-10-06T04:29:38.325Z,10.50
2018-10-06T04:32:12.786Z,10.60
2018-10-06T04:34:47.372Z,10.60
2018-10-06T04:37:22.052Z,10.50
2018-10-06T04:39:56.508Z,10.50
2018-10-06T04:42:31.132Z,10.50
2018-10-06T04:45:05.610Z,10.50
2018-10-06T04:47:39.851Z,10.50
2018-10-06T04:50:14.237Z,10.60
2018-10-06T04:52:48.690Z,10.50
2018-10-06T04:55:23.354Z,10.60
2018-10-06T04:57:57.698Z,10.50
2018-10-06T05:00:32.376Z,10.60
2018-10-06T05:03:06.945Z,10.50
2018-10-06T05:05:41.346Z,10.50
2018-10-06T05:08:16.069Z,10.50
2018-10-06T05:10:50.678Z,10.50
2018-10-06T05:13:25.189Z,10.50
2018-10-06T05:15:59.604Z,10.50
2018-10-06T05:18:34.244Z,10.60
2018-10-06T05:21:08.779Z,10.60
2018-10-06T05:23:43.263Z,10.50
2018-10-06T05:26:17.884Z,10.40
2018-10-06T05:28:52.369Z,10.40
2018-10-06T05:31:27.021Z,10.50
2018-10-06T05:34:01.683Z,10.60
2018-10-06T05:36:36.216Z,10.70
2018-10-06T05:39:11.562Z,10.70
2018-10-06T05:41:46.152Z,10.60
2018-10-06T05:44:20.609Z,10.60
2018-10-06T05:46:55.115Z,10.50
2018-10-06T05:49:29.660Z,10.60
2018-10-06T05:52:04.181Z,10.50
2018-10-06T05:54:38.809Z,10.60
2018-10-06T05:57:13.208Z,10.60
2018-10-06T05:59:47.764Z,10.40
2018-10-06T06:02:22.203Z,10.40
2018-10-06T06:04:56.883Z,10.50
2018-10-06T06:07:31.455Z,10.60
2018-10-06T06:10:05.819Z,10.50
2018-10-06T06:12:40.728Z,10.30
2018-10-06T06:15:15.272Z,10.30
2018-10-06T06:17:49.712Z,10.40
2018-10-06T06:20:24.014Z,10.30
2018-10-06T06:22:58.718Z,10.20
2018-10-06T06:25:33.365Z,10.40
2018-10-06T06:28:07.725Z,10.70
2018-10-06T06:30:42.116Z,10.90
2018-10-06T06:33:16.715Z,11.10
2018-10-06T06:35:51.281Z,11.30
2018-10-06T06:38:25.881Z,11.50
2018-10-06T06:41:00.507Z,11.70
2018-10-06T06:43:35.223Z,11.90
2018-10-06T06:46:09.999Z,12.10
2018-10-06T06:48:44.522Z,12.40
2018-10-06T06:51:19.188Z,12.60
2018-10-06T06:53:53.780Z,12.80
2018-10-06T06:56:28.190Z,13.10
2018-10-06T06:59:02.666Z,13.30
2018-10-06T07:01:37.226Z,13.50
2018-10-06T07:04:11.747Z,13.70
2018-10-06T07:06:46.434Z,13.90
2018-10-06T07:09:20.859Z,14.10
2018-10-06T07:11:55.392Z,14.30
2018-10-06T07:14:29.950Z,14.50
2018-10-06T07:17:04.628Z,14.70
2018-10-06T07:19:39.110Z,14.80
2018-10-06T07:22:13.515Z,14.90
2018-10-06T07:24:47.997Z,15.10
2018-10-06T07:27:22.417Z,15.30
2018-10-06T07:29:56.946Z,15.40
2018-10-06T07:32:31.620Z,15.50
2018-10-06T07:35:06.160Z,15.60
2018-10-06T07:37:40.665Z,15.70
2018-10-06T07:40:15.079Z,15.80
2018-10-06T07:42:49.629Z,15.90
2018-10-06T07:45:24.155Z,16.00
2018-10-06T07:47:58.575Z,16.10
2018-10-06T07:50:33.215Z,16.20
2018-10-06T07:53:07.867Z,16.20
2018-10-06T07:55:42.471Z,16.20
2018-10-06T07:58:17.183Z,16.40
2018-10-06T08:00:51.712Z,16.40
2018-10-06T08:03:26.836Z,16.60
2018-10-06T08:06:01.460Z,16.70
2018-10-06T08:08:36.015Z,16.90
2018-10-06T08:11:10.621Z,17.10
2018-10-06T08:13:45.034Z,17.20
2018-10-06T08:16:19.356Z,17.40
2018-10-06T08:18:53.818Z,17.40
2018-10-06T08:21:28.517Z,17.40
2018-10-06T08:24:03.014Z,17.40
2018-10-06T08:26:38.049Z,17.30
2018-10-06T08:29:12.475Z,17.30
2018-10-06T08:31:46.840Z,17.30
2018-10-06T08:34:21.078Z,17.30
2018-10-06T08:36:55.460Z,17.40
2018-10-06T08:39:30.046Z,17.60
2018-10-06T08:42:04.479Z,17.70
2018-10-06T08:44:38.995Z,17.80
2018-10-06T08:47:13.521Z,17.90
2018-10-06T08:49:47.951Z,18.10
2018-10-06T08:52:22.312Z,18.20
2018-10-06T08:54:56.714Z,18.40
2018-10-06T08:57:30.986Z,18.60
2018-10-06T09:00:05.368Z,18.80
2018-10-06T09:02:39.682Z,18.90
2018-10-06T09:05:14.082Z,19.00
2018-10-06T09:07:48.394Z,19.20
2018-10-06T09:10:22.931Z,19.40
2018-10-06T09:12:57.572Z,19.70
2018-10-06T09:15:32.039Z,19.90
2018-10-06T09:18:06.675Z,20.00
2018-10-06T09:20:41.116Z,20.10
2018-10-06T09:23:15.733Z,20.10
2018-10-06T09:25:50.192Z,20.20
2018-10-06T09:28:24.782Z,20.20
2018-10-06T09:30:59.311Z,20.30
2018-10-06T09:33:33.813Z,20.40
2018-10-06T09:36:08.432Z,20.40
2018-10-06T09:38:42.820Z,20.50
2018-10-06T09:41:17.302Z,20.60
2018-10-06T09:43:51.889Z,20.70
2018-10-06T09:46:26.482Z,20.80
2018-10-06T09:49:00.949Z,20.90
2018-10-06T09:51:35.476Z,21.10
2018-10-06T09:54:10.133Z,21.30
2018-10-06T09:56:44.599Z,21.50
2018-10-06T09:59:19.178Z,21.50
2018-10-06T10:01:59.118Z,21.60
2018-10-06T10:04:33.601Z,21.60
2018-10-06T10:07:08.184Z,21.60
2018-10-06T10:09:42.823Z,21.70
2018-10-06T10:12:17.491Z,21.70
2018-10-06T10:14:52.066Z,21.70
2018-10-06T10:17:26.687Z,21.70
2018-10-06T10:20:01.204Z,21.80
2018-10-06T10:22:35.886Z,21.80
2018-10-06T10:25:10.255Z,21.70
2018-10-06T10:27:44.684Z,21.70
2018-10-06T10:30:19.185Z,21.50
2018-10-06T10:32:53.789Z,21.20
2018-10-06T10:35:28.313Z,21.20
2018-10-06T10:38:02.773Z,21.10
2018-10-06T10:40:37.307Z,21.30
2018-10-06T10:43:11.829Z,21.50
2018-10-06T10:45:46.425Z,21.80
2018-10-06T10:48:21.239Z,22.10
2018-10-06T10:50:55.865Z,22.20
2018-10-06T10:53:30.608Z,22.40
2018-10-06T10:56:05.224Z,22.60
2018-10-06T10:58:39.617Z,22.80
2018-10-06T11:01:14.298Z,22.80
2018-10-06T11:03:48.728Z,22.80
2018-10-06T11:06:23.339Z,22.80
2018-10-06T11:08:57.944Z,22.90
2018-10-06T11:11:32.408Z,22.90
2018-10-06T11:14:06.946Z,22.90
2018-10-06T11:16:41.996Z,22.80
2018-10-06T11:19:16.709Z,22.80
2018-10-06T11:21:51.418Z,22.80
2018-10-06T11:24:25.996Z,22.70
2018-10-06T11:27:00.520Z,22.70
2018-10-06T11:29:35.134Z,22.70
2018-10-06T11:32:09.854Z,22.60
2018-10-06T11:34:44.254Z,22.60
2018-10-06T11:37:18.919Z,22.60
2018-10-06T11:39:53.566Z,22.60
2018-10-06T11:42:28.068Z,22.70
2018-10-06T11:45:02.776Z,22.70
2018-10-06T11:47:37.258Z,22.70
2018-10-06T11:50:11.821Z,22.60
2018-10-06T11:55:20.878Z,22.40
2018-10-06T11:57:55.506Z,22.60
2018-10-06T12:00:30.371Z,22.80
2018-10-06T12:03:05.146Z,23.00
2018-10-06T12:05:39.919Z,23.20
2018-10-06T12:08:14.884Z,23.40
2018-10-06T12:10:49.699Z,23.50
2018-10-06T12:13:24.520Z,23.60
2018-10-06T12:15:59.417Z,23.70
2018-10-06T12:18:34.235Z,23.70
2018-10-06T12:21:09.129Z,23.80
2018-10-06T12:23:44.065Z,23.80
2018-10-06T12:26:21.468Z,23.80
2018-10-06T12:30:31.759Z,24.00
2018-10-06T12:33:06.623Z,24.10
2018-10-06T12:35:41.543Z,24.20
2018-10-06T12:38:16.210Z,24.20
2018-10-06T12:40:50.938Z,24.10
2018-10-06T12:43:25.469Z,23.80
2018-10-06T12:46:00.008Z,23.50
2018-10-06T12:48:34.647Z,23.50
2018-10-06T12:51:09.354Z,23.10
2018-10-06T12:53:44.100Z,23.00
2018-10-06T12:56:18.594Z,23.00
2018-10-06T12:58:53.216Z,22.80
2018-10-06T13:01:27.872Z,22.90
2018-10-06T13:04:02.488Z,23.10
2018-10-06T13:06:37.109Z,23.30
2018-10-06T13:09:12.359Z,23.30
2018-10-06T13:11:47.239Z,23.40
2018-10-06T13:14:22.118Z,23.50
2018-10-06T13:17:03.395Z,23.50
2018-10-06T13:19:38.215Z,23.60
2018-10-06T13:22:12.957Z,23.90
2018-10-06T13:24:51.640Z,24.00
2018-10-06T13:27:26.447Z,23.90
2018-10-06T13:30:01.289Z,23.90
2018-10-06T13:32:37.110Z,24.10
2018-10-06T13:35:11.839Z,24.10
2018-10-06T13:37:46.709Z,24.00
2018-10-06T13:40:21.437Z,24.00
2018-10-06T13:42:56.143Z,24.00
2018-10-06T13:45:30.751Z,23.90
2018-10-06T13:48:05.613Z,23.70
2018-10-06T13:50:40.096Z,23.90
2018-10-06T13:53:15.910Z,24.00
2018-10-06T13:55:52.113Z,24.00
2018-10-06T13:58:27.256Z,24.10
2018-10-06T14:01:01.838Z,24.10
2018-10-06T14:03:36.486Z,23.80
2018-10-06T14:06:10.999Z,23.80
2018-10-06T14:08:46.884Z,23.70
2018-10-06T14:11:21.521Z,23.80
2018-10-06T14:13:56.353Z,23.90
2018-10-06T14:16:31.263Z,24.00
2018-10-06T14:19:05.950Z,24.10
2018-10-06T14:21:40.977Z,24.10
2018-10-06T14:24:15.672Z,24.00
2018-10-06T14:26:50.637Z,24.00
2018-10-06T14:29:25.460Z,24.00
2018-10-06T14:32:00.037Z,24.00
2018-10-06T14:34:34.855Z,24.00
2018-10-06T14:37:09.692Z,24.00
2018-10-06T14:39:44.314Z,23.80
2018-10-06T14:42:18.848Z,23.70
2018-10-06T14:44:53.787Z,23.60
2018-10-06T14:50:02.888Z,23.70
2018-10-06T14:52:37.679Z,23.60
2018-10-06T14:55:12.416Z,23.30
2018-10-06T14:57:46.997Z,23.40
2018-10-06T15:00:21.623Z,23.40
2018-10-06T15:02:56.114Z,23.20
2018-10-06T15:05:30.751Z,23.10
2018-10-06T15:08:05.611Z,23.00
2018-10-06T15:10:40.265Z,22.90
2018-10-06T15:13:14.885Z,23.00
2018-10-06T15:15:49.587Z,23.00
2018-10-06T15:18:24.233Z,22.90
2018-10-06T15:20:58.869Z,22.90
2018-10-06T15:23:33.593Z,22.80
2018-10-06T15:26:08.098Z,22.80
2018-10-06T15:28:42.835Z,22.80
2018-10-06T15:31:17.401Z,22.90
2018-10-06T15:33:51.904Z,22.90
2018-10-06T15:36:26.565Z,22.90
2018-10-06T15:39:01.171Z,22.90
2018-10-06T15:41:35.764Z,22.90
2018-10-06T15:44:10.479Z,22.90
2018-10-06T15:46:45.003Z,22.80
2018-10-06T15:49:19.633Z,22.80
2018-10-06T15:51:54.375Z,22.70
2018-10-06T15:54:29.103Z,22.70
2018-10-06T15:57:03.517Z,22.60
2018-10-06T15:59:38.116Z,22.50
2018-10-06T16:02:12.753Z,22.40
2018-10-06T16:04:47.435Z,22.30
2018-10-06T16:07:21.941Z,22.20
2018-10-06T16:09:56.583Z,22.10
2018-10-06T16:12:31.209Z,22.00
2018-10-06T16:15:05.824Z,21.90
2018-10-06T16:17:40.443Z,21.80
2018-10-06T16:20:15.026Z,21.80
2018-10-06T16:22:49.443Z,21.60
2018-10-06T16:25:24.129Z,21.50
2018-10-06T16:27:58.687Z,21.30
2018-10-06T16:30:33.168Z,20.70
2018-10-06T16:33:07.985Z,20.00
2018-10-06T16:35:42.651Z,19.80
2018-10-06T16:38:17.107Z,19.70
2018-10-06T16:40:51.786Z,19.70
2018-10-06T16:43:26.239Z,19.70
2018-10-06T16:46:00.802Z,19.60
2018-10-06T16:48:35.265Z,19.70
2018-10-06T16:51:09.672Z,19.70
2018-10-06T16:53:44.258Z,19.50
2018-10-06T16:56:19.022Z,19.50
2018-10-06T16:58:53.723Z,19.50
2018-10-06T17:01:28.147Z,19.50
2018-10-06T17:04:02.756Z,19.50
2018-10-06T17:06:37.278Z,19.50
2018-10-06T17:09:12.246Z,19.40
2018-10-06T17:11:46.794Z,19.20
2018-10-06T17:14:21.407Z,19.30
2018-10-06T17:16:56.065Z,19.20
2018-10-06T17:19:30.563Z,19.10
2018-10-06T17:22:05.143Z,19.10
2018-10-06T17:24:39.713Z,19.10
2018-10-06T17:27:14.313Z,19.00
2018-10-06T17:29:48.963Z,19.00
2018-10-06T17:32:23.526Z,19.00
2018-10-06T17:34:57.984Z,18.90
2018-10-06T17:37:32.581Z,18.90
2018-10-06T17:40:07.153Z,18.90
2018-10-06T17:42:41.729Z,18.90
2018-10-06T17:45:16.196Z,18.80
2018-10-06T17:47:50.734Z,18.70
2018-10-06T17:50:25.442Z,18.60
2018-10-06T17:52:59.750Z,18.30
2018-10-06T17:55:34.291Z,17.90
2018-10-06T17:58:09.053Z,17.20
2018-10-06T18:00:43.699Z,17.00
2018-10-06T18:03:18.166Z,17.10
2018-10-06T18:08:26.913Z,17.40
2018-10-06T18:11:01.570Z,17.50
2018-10-06T18:13:36.192Z,17.60
2018-10-06T18:16:10.698Z,17.50
2018-10-06T18:18:45.216Z,17.20
2018-10-06T18:21:20.203Z,17.20
2018-10-06T18:23:55.551Z,17.20
2018-10-06T18:26:30.074Z,17.20
2018-10-06T18:31:38.892Z,17.40
2018-10-06T18:34:13.420Z,17.60
2018-10-06T18:36:47.902Z,17.60
2018-10-06T18:39:22.489Z,17.50
2018-10-06T18:44:31.300Z,17.50
2018-10-06T18:47:05.917Z,17.50
2018-10-06T18:49:40.445Z,17.30
2018-10-06T18:52:15.105Z,17.30
2018-10-06T18:54:49.645Z,17.40
2018-10-06T18:57:24.198Z,17.40
2018-10-06T18:59:58.670Z,17.30
2018-10-06T19:02:33.217Z,17.40
2018-10-06T19:05:07.704Z,17.10
2018-10-06T19:07:42.335Z,16.70
2018-10-06T19:10:16.950Z,16.20
2018-10-06T19:12:51.442Z,16.00
2018-10-06T19:18:00.206Z,16.20
2018-10-06T19:20:34.787Z,16.30
2018-10-06T19:23:09.498Z,16.40
2018-10-06T19:25:44.224Z,16.40
2018-10-06T19:28:18.847Z,16.50
2018-10-06T19:30:53.519Z,16.50
2018-10-06T19:33:28.184Z,16.60
2018-10-06T19:36:02.828Z,16.60
2018-10-06T19:38:37.290Z,16.60
2018-10-06T19:41:11.771Z,16.20
2018-10-06T19:43:46.377Z,16.00
2018-10-06T19:46:21.049Z,16.10
2018-10-06T19:48:55.431Z,16.20
2018-10-06T19:51:29.988Z,16.20
2018-10-06T19:54:04.515Z,16.40
2018-10-06T19:56:39.130Z,16.50
2018-10-06T19:59:13.670Z,16.60
2018-10-06T20:01:48.196Z,16.60
2018-10-06T20:04:22.944Z,16.70
2018-10-06T20:06:57.430Z,16.20
2018-10-06T20:09:31.965Z,16.00
2018-10-06T20:12:06.910Z,16.10
2018-10-06T20:14:41.367Z,16.20
2018-10-06T20:17:15.776Z,16.20
2018-10-06T20:19:50.079Z,16.30
2018-10-06T20:22:24.465Z,16.30
2018-10-06T20:24:58.864Z,16.40
2018-10-06T20:27:33.269Z,16.40
2018-10-06T20:30:07.610Z,16.40
2018-10-06T20:32:41.911Z,16.40
2018-10-06T20:35:16.228Z,16.40
2018-10-06T20:37:50.527Z,16.40
2018-10-06T20:40:24.774Z,16.30
2018-10-06T20:42:59.187Z,16.30
2018-10-06T20:48:07.992Z,16.30
2018-10-06T20:50:42.470Z,16.30
2018-10-06T20:53:16.883Z,16.20
2018-10-06T20:55:51.165Z,16.20
2018-10-06T20:58:25.737Z,16.10
2018-10-06T21:01:00.182Z,16.10
2018-10-06T21:03:34.511Z,16.10
2018-10-06T21:06:08.975Z,16.20
2018-10-06T21:08:43.238Z,16.30
2018-10-06T21:11:17.594Z,16.40
2018-10-06T21:13:52.024Z,16.50
2018-10-06T21:16:26.280Z,16.60
2018-10-06T21:19:00.557Z,16.60
2018-10-06T21:21:34.920Z,16.70
2018-10-06T21:24:09.332Z,16.70
2018-10-06T21:26:43.713Z,16.70
2018-10-06T21:29:18.231Z,16.70
2018-10-06T21:31:52.747Z,16.60
2018-10-06T21:34:27.171Z,16.50
2018-10-06T21:37:01.625Z,16.60
2018-10-06T21:39:35.945Z,16.10
2018-10-06T21:42:10.278Z,15.80
2018-10-06T21:44:44.677Z,15.90
2018-10-06T21:47:19.099Z,16.00
2018-10-06T21:49:53.388Z,16.00
2018-10-06T21:52:27.660Z,16.10
2018-10-06T21:55:02.083Z,16.10
2018-10-06T21:57:36.452Z,16.20
2018-10-06T22:00:10.722Z,16.30
2018-10-06T22:02:45.092Z,16.30
2018-10-06T22:05:19.615Z,16.30
2018-10-06T22:07:53.883Z,16.40
2018-10-06T22:10:28.408Z,16.40
2018-10-06T22:13:02.719Z,16.40
2018-10-06T22:15:37.092Z,16.30
2018-10-06T22:18:11.440Z,16.30
2018-10-06T22:20:46.276Z,16.30
2018-10-06T22:23:20.837Z,16.30
2018-10-06T22:25:55.274Z,16.40
2018-10-06T22:28:29.666Z,16.40
2018-10-06T22:31:04.134Z,16.40
2018-10-06T22:33:38.496Z,16.50
2018-10-06T22:36:13.039Z,16.50
2018-10-06T22:38:47.459Z,16.50
2018-10-06T22:41:21.887Z,16.40
2018-10-06T22:43:56.137Z,16.40
2018-10-06T22:46:30.577Z,16.40
2018-10-06T22:49:05.107Z,16.40
2018-10-06T22:51:39.582Z,16.40
2018-10-06T22:54:13.924Z,16.30
2018-10-06T22:56:48.343Z,16.20
2018-10-06T22:59:22.686Z,16.20
2018-10-06T23:01:57.248Z,16.30
2018-10-06T23:04:31.519Z,16.30
2018-10-06T23:07:05.882Z,16.30
2018-10-06T23:09:40.192Z,16.30
2018-10-06T23:12:14.470Z,16.30
2018-10-06T23:14:48.725Z,16.50
2018-10-06T23:17:26.019Z,16.40
2018-10-06T23:20:00.351Z,15.80
2018-10-06T23:22:34.739Z,15.70
2018-10-06T23:25:09.109Z,15.80
2018-10-06T23:27:43.589Z,15.80
2018-10-06T23:30:17.865Z,15.80
2018-10-06T23:32:52.331Z,15.90
2018-10-06T23:35:26.767Z,15.90
2018-10-06T23:38:01.154Z,15.90
2018-10-06T23:40:35.594Z,16.00
2018-10-06T23:43:10.110Z,16.00
2018-10-06T23:45:44.440Z,16.00
2018-10-06T23:48:18.955Z,15.90
2018-10-06T23:50:53.504Z,16.00
2018-10-06T23:53:27.769Z,15.60
2018-10-06T23:56:02.231Z,15.00
2018-10-06T23:58:36.452Z,14.60
